sensor_id;sensor_type;location;lat;lon;timestamp;pressure;altitude;pressure_sealevel;temperature;humidity
13800;BME280;6971;50.028;9.258;2023-04-19T00:04:18;100191.47;;;8.60;100.00
13800;BME280;6971;50.028;9.258;2023-04-19T00:09:19;100186.28;;;8.85;99.25
13800;BME280;6971;50.028;9.258;2023-04-19T00:14:19;100184.53;;;8.84;99.40
13800;BME280;6971;50.028;9.258;2023-04-19T00:19:20;100177.00;;;8.73;100.00
13800;BME280;6971;50.028;9.258;2023-04-19T00:24:21;100177.00;;;8.73;100.00
13800;BME280;6971;50.028;9.258;2023-04-19T00:29:21;100178.19;;;8.65;100.00
13800;BME280;6971;50.028;9.258;2023-04-19T00:34:22;100177.34;;;8.64;100.00
13800;BME280;6971;50.028;9.258;2023-04-19T00:39:22;100171.56;;;8.54;100.00
13800;BME280;6971;50.028;9.258;2023-04-19T00:44:23;100170.69;;;8.54;100.00
13800;BME280;6971;50.028;9.258;2023-04-19T00:49:23;100162.47;;;8.36;100.00
13800;BME280;6971;50.028;9.258;2023-04-19T00:54:24;100164.09;;;8.40;100.00
13800;BME280;6971;50.028;9.258;2023-04-19T00:59:25;100167.50;;;8.42;100.00
13800;BME280;6971;50.028;9.258;2023-04-19T01:04:25;100162.63;;;8.31;100.00
13800;BME280;6971;50.028;9.258;2023-04-19T01:09:26;100154.19;;;8.48;100.00
13800;BME280;6971;50.028;9.258;2023-04-19T01:14:26;100157.97;;;8.40;100.00
13800;BME280;6971;50.028;9.258;2023-04-19T01:19:27;100145.09;;;8.32;100.00
13800;BME280;6971;50.028;9.258;2023-04-19T01:24:27;100148.09;;;8.46;100.00
13800;BME280;6971;50.028;9.258;2023-04-19T01:29:27;100140.34;;;8.43;100.00
13800;BME280;6971;50.028;9.258;2023-04-19T01:34:28;100134.38;;;8.38;100.00
13800;BME280;6971;50.028;9.258;2023-04-19T01:39:29;100130.09;;;8.35;100.00
13800;BME280;6971;50.028;9.258;2023-04-19T01:44:29;100128.03;;;8.18;100.00
13800;BME280;6971;50.028;9.258;2023-04-19T01:49:29;100116.66;;;8.18;100.00
13800;BME280;6971;50.028;9.258;2023-04-19T01:54:30;100118.28;;;8.22;100.00
13800;BME280;6971;50.028;9.258;2023-04-19T01:59:30;100110.34;;;8.23;100.00
13800;BME280;6971;50.028;9.258;2023-04-19T02:04:32;100111.56;;;8.13;100.00
13800;BME280;6971;50.028;9.258;2023-04-19T02:09:37;100100.06;;;8.17;100.00
13800;BME280;6971;50.028;9.258;2023-04-19T02:14:38;100098.75;;;8.04;100.00
13800;BME280;6971;50.028;9.258;2023-04-19T02:19:38;100092.38;;;7.84;100.00
13800;BME280;6971;50.028;9.258;2023-04-19T02:24:38;100089.53;;;7.63;100.00
13800;BME280;6971;50.028;9.258;2023-04-19T02:29:39;100090.19;;;7.41;100.00
13800;BME280;6971;50.028;9.258;2023-04-19T02:34:39;100088.03;;;7.26;100.00
13800;BME280;6971;50.028;9.258;2023-04-19T02:39:39;100088.06;;;7.24;100.00
13800;BME280;6971;50.028;9.258;2023-04-19T02:44:56;100082.69;;;7.29;100.00
13800;BME280;6971;50.028;9.258;2023-04-19T02:49:56;100081.97;;;7.24;100.00
13800;BME280;6971;50.028;9.258;2023-04-19T02:54:56;100086.03;;;7.34;100.00
13800;BME280;6971;50.028;9.258;2023-04-19T02:59:57;100083.00;;;7.48;100.00
13800;BME280;6971;50.028;9.258;2023-04-19T03:04:58;100075.81;;;7.55;100.00
13800;BME280;6971;50.028;9.258;2023-04-19T03:09:58;100072.31;;;7.54;100.00
13800;BME280;6971;50.028;9.258;2023-04-19T03:14:58;100060.16;;;7.52;100.00
13800;BME280;6971;50.028;9.258;2023-04-19T03:19:58;100057.09;;;7.66;100.00
13800;BME280;6971;50.028;9.258;2023-04-19T03:24:59;100056.84;;;7.74;100.00
13800;BME280;6971;50.028;9.258;2023-04-19T03:29:59;100050.72;;;7.73;100.00
13800;BME280;6971;50.028;9.258;2023-04-19T03:35:00;100045.44;;;7.75;100.00
13800;BME280;6971;50.028;9.258;2023-04-19T03:40:00;100038.09;;;7.86;100.00
13800;BME280;6971;50.028;9.258;2023-04-19T03:45:00;100031.81;;;7.90;100.00
13800;BME280;6971;50.028;9.258;2023-04-19T03:50:01;100036.72;;;8.01;100.00
13800;BME280;6971;50.028;9.258;2023-04-19T03:55:03;100026.97;;;8.05;100.00
13800;BME280;6971;50.028;9.258;2023-04-19T04:00:04;100023.31;;;8.09;100.00
13800;BME280;6971;50.028;9.258;2023-04-19T04:05:08;100024.13;;;8.11;100.00
13800;BME280;6971;50.028;9.258;2023-04-19T04:10:08;100030.47;;;8.05;100.00
13800;BME280;6971;50.028;9.258;2023-04-19T04:15:09;100024.13;;;8.11;100.00
13800;BME280;6971;50.028;9.258;2023-04-19T04:20:10;100028.34;;;8.15;100.00
13800;BME280;6971;50.028;9.258;2023-04-19T04:25:15;100025.63;;;8.18;100.00
13800;BME280;6971;50.028;9.258;2023-04-19T04:30:15;100025.03;;;8.10;100.00
13800;BME280;6971;50.028;9.258;2023-04-19T04:35:16;100031.66;;;8.20;100.00
13800;BME280;6971;50.028;9.258;2023-04-19T04:40:16;100028.16;;;8.21;100.00
13800;BME280;6971;50.028;9.258;2023-04-19T04:45:17;100033.56;;;8.17;100.00
13800;BME280;6971;50.028;9.258;2023-04-19T04:50:17;100026.53;;;8.17;100.00
13800;BME280;6971;50.028;9.258;2023-04-19T04:55:18;100032.81;;;8.13;100.00
13800;BME280;6971;50.028;9.258;2023-04-19T05:00:20;100020.88;;;8.30;100.00
13800;BME280;6971;50.028;9.258;2023-04-19T05:05:20;100023.09;;;8.15;100.00
13800;BME280;6971;50.028;9.258;2023-04-19T05:10:20;100016.88;;;8.18;100.00
13800;BME280;6971;50.028;9.258;2023-04-19T05:15:21;100023.38;;;8.07;100.00
13800;BME280;6971;50.028;9.258;2023-04-19T05:20:21;100030.28;;;8.10;100.00
13800;BME280;6971;50.028;9.258;2023-04-19T05:25:22;100017.06;;;8.13;100.00
13800;BME280;6971;50.028;9.258;2023-04-19T05:30:22;100018.94;;;8.35;100.00
13800;BME280;6971;50.028;9.258;2023-04-19T05:35:22;100010.03;;;8.65;100.00
13800;BME280;6971;50.028;9.258;2023-04-19T05:40:22;100014.31;;;8.67;100.00
13800;BME280;6971;50.028;9.258;2023-04-19T05:45:24;100001.09;;;8.93;100.00
13800;BME280;6971;50.028;9.258;2023-04-19T05:50:25;100004.91;;;9.08;100.00
13800;BME280;6971;50.028;9.258;2023-04-19T05:55:25;99997.34;;;9.22;100.00
13800;BME280;6971;50.028;9.258;2023-04-19T06:00:25;100009.59;;;9.46;100.00
13800;BME280;6971;50.028;9.258;2023-04-19T06:05:27;100009.53;;;9.47;100.00
13800;BME280;6971;50.028;9.258;2023-04-19T06:10:27;100012.66;;;9.35;100.00
13800;BME280;6971;50.028;9.258;2023-04-19T06:15:27;100011.78;;;9.57;100.00
13800;BME280;6971;50.028;9.258;2023-04-19T06:20:29;100009.66;;;9.66;100.00
13800;BME280;6971;50.028;9.258;2023-04-19T06:25:30;100011.63;;;9.82;100.00
13800;BME280;6971;50.028;9.258;2023-04-19T06:30:30;100012.69;;;9.78;100.00
13800;BME280;6971;50.028;9.258;2023-04-19T06:35:31;100007.22;;;9.83;99.38
13800;BME280;6971;50.028;9.258;2023-04-19T06:40:32;100004.34;;;10.10;97.09
13800;BME280;6971;50.028;9.258;2023-04-19T06:45:33;100005.22;;;10.10;94.33
13800;BME280;6971;50.028;9.258;2023-04-19T06:50:33;100010.34;;;10.13;92.85
13800;BME280;6971;50.028;9.258;2023-04-19T06:55:34;100004.53;;;10.26;92.90
13800;BME280;6971;50.028;9.258;2023-04-19T07:00:34;99993.84;;;9.66;93.88
13800;BME280;6971;50.028;9.258;2023-04-19T07:05:35;100001.31;;;9.77;93.14
13800;BME280;6971;50.028;9.258;2023-04-19T07:10:35;99994.63;;;10.12;91.20
13800;BME280;6971;50.028;9.258;2023-04-19T07:15:36;99992.50;;;9.99;92.30
13800;BME280;6971;50.028;9.258;2023-04-19T07:20:36;99985.50;;;10.19;91.49
13800;BME280;6971;50.028;9.258;2023-04-19T07:25:36;99977.63;;;10.19;87.00
13800;BME280;6971;50.028;9.258;2023-04-19T07:30:37;99979.66;;;10.12;88.83
13800;BME280;6971;50.028;9.258;2023-04-19T07:35:38;99981.44;;;10.12;89.66
13800;BME280;6971;50.028;9.258;2023-04-19T07:40:38;99980.84;;;10.26;88.51
13800;BME280;6971;50.028;9.258;2023-04-19T07:45:38;99976.25;;;10.10;87.75
13800;BME280;6971;50.028;9.258;2023-04-19T07:50:39;99980.84;;;10.26;86.28
13800;BME280;6971;50.028;9.258;2023-04-19T07:55:40;99966.31;;;10.17;84.16
13800;BME280;6971;50.028;9.258;2023-04-19T08:00:40;99967.06;;;10.40;84.42
13800;BME280;6971;50.028;9.258;2023-04-19T08:05:40;99963.00;;;10.92;80.61
13800;BME280;6971;50.028;9.258;2023-04-19T08:10:41;99959.91;;;10.63;78.00
13800;BME280;6971;50.028;9.258;2023-04-19T08:15:41;99985.59;;;11.34;77.10
13800;BME280;6971;50.028;9.258;2023-04-19T08:20:41;99965.28;;;11.36;76.64
13800;BME280;6971;50.028;9.258;2023-04-19T08:25:42;99959.63;;;11.07;76.86
13800;BME280;6971;50.028;9.258;2023-04-19T08:30:42;99967.41;;;11.10;76.20
13800;BME280;6971;50.028;9.258;2023-04-19T08:35:42;99959.88;;;10.83;74.93
13800;BME280;6971;50.028;9.258;2023-04-19T08:40:46;99953.72;;;11.02;73.33
13800;BME280;6971;50.028;9.258;2023-04-19T08:45:50;99952.09;;;11.36;70.60
13800;BME280;6971;50.028;9.258;2023-04-19T08:50:50;99951.56;;;12.52;64.82
13800;BME280;6971;50.028;9.258;2023-04-19T08:55:51;99945.34;;;13.01;60.81
13800;BME280;6971;50.028;9.258;2023-04-19T09:00:58;99945.00;;;13.70;60.35
13800;BME280;6971;50.028;9.258;2023-04-19T09:06:00;99928.59;;;13.94;56.35
13800;BME280;6971;50.028;9.258;2023-04-19T09:11:00;99926.38;;;14.46;56.54
13800;BME280;6971;50.028;9.258;2023-04-19T09:16:01;99927.97;;;13.60;53.77
13800;BME280;6971;50.028;9.258;2023-04-19T09:21:01;99925.75;;;14.70;53.99
13800;BME280;6971;50.028;9.258;2023-04-19T09:26:02;99917.34;;;14.64;54.58
13800;BME280;6971;50.028;9.258;2023-04-19T09:31:10;99921.22;;;14.87;54.70
13800;BME280;6971;50.028;9.258;2023-04-19T09:36:26;99927.69;;;16.04;51.27
13800;BME280;6971;50.028;9.258;2023-04-19T09:41:27;99920.31;;;15.42;50.44
13800;BME280;6971;50.028;9.258;2023-04-19T09:46:35;99920.28;;;15.69;50.34
13800;BME280;6971;50.028;9.258;2023-04-19T09:51:40;99898.91;;;15.17;51.73
13800;BME280;6971;50.028;9.258;2023-04-19T09:56:41;99898.13;;;15.02;53.48
13800;BME280;6971;50.028;9.258;2023-04-19T10:06:53;99885.75;;;13.57;55.57
13800;BME280;6971;50.028;9.258;2023-04-19T10:11:53;99897.16;;;14.61;51.90
13800;BME280;6971;50.028;9.258;2023-04-19T10:16:55;99896.56;;;14.70;51.26
13800;BME280;6971;50.028;9.258;2023-04-19T10:21:55;99887.00;;;15.50;48.15
13800;BME280;6971;50.028;9.258;2023-04-19T10:32:12;99865.25;;;15.71;47.11
13800;BME280;6971;50.028;9.258;2023-04-19T10:37:13;99873.63;;;16.43;42.80
13800;BME280;6971;50.028;9.258;2023-04-19T10:42:13;99879.56;;;14.60;46.55
13800;BME280;6971;50.028;9.258;2023-04-19T10:47:43;99873.44;;;15.68;45.08
13800;BME280;6971;50.028;9.258;2023-04-19T10:52:43;99868.28;;;15.39;43.54
13800;BME280;6971;50.028;9.258;2023-04-19T10:58:05;99849.09;;;16.64;42.83
13800;BME280;6971;50.028;9.258;2023-04-19T11:08:44;99830.22;;;16.67;40.07
13800;BME280;6971;50.028;9.258;2023-04-19T11:13:46;99838.56;;;17.58;38.94
13800;BME280;6971;50.028;9.258;2023-04-19T11:18:46;99839.78;;;17.66;38.08
13800;BME280;6971;50.028;9.258;2023-04-19T11:23:47;99834.44;;;15.69;42.64
13800;BME280;6971;50.028;9.258;2023-04-19T11:28:49;99812.75;;;13.22;46.83
13800;BME280;6971;50.028;9.258;2023-04-19T11:33:50;99802.34;;;14.22;45.73
13800;BME280;6971;50.028;9.258;2023-04-19T11:38:51;99799.34;;;14.00;43.91
13800;BME280;6971;50.028;9.258;2023-04-19T11:43:52;99792.28;;;16.76;41.56
13800;BME280;6971;50.028;9.258;2023-04-19T11:48:53;99781.50;;;16.42;38.24
13800;BME280;6971;50.028;9.258;2023-04-19T11:53:53;99783.47;;;16.76;39.30
13800;BME280;6971;50.028;9.258;2023-04-19T11:58:56;99791.09;;;16.80;39.38
13800;BME280;6971;50.028;9.258;2023-04-19T12:03:56;99781.53;;;16.53;39.17
13800;BME280;6971;50.028;9.258;2023-04-19T12:08:57;99771.56;;;16.20;37.62
13800;BME280;6971;50.028;9.258;2023-04-19T12:14:11;99778.81;;;15.91;37.10
13800;BME280;6971;50.028;9.258;2023-04-19T12:19:13;99768.59;;;16.11;37.46
13800;BME280;6971;50.028;9.258;2023-04-19T12:24:18;99771.81;;;16.03;37.48
13800;BME280;6971;50.028;9.258;2023-04-19T12:29:18;99769.13;;;16.65;34.86
13800;BME280;6971;50.028;9.258;2023-04-19T12:34:18;99765.03;;;15.34;35.26
13800;BME280;6971;50.028;9.258;2023-04-19T12:39:18;99768.88;;;16.93;34.78
13800;BME280;6971;50.028;9.258;2023-04-19T12:44:21;99762.94;;;17.14;33.84
13800;BME280;6971;50.028;9.258;2023-04-19T12:49:22;99761.78;;;16.69;32.15
13800;BME280;6971;50.028;9.258;2023-04-19T12:54:22;99759.81;;;16.35;32.47
13800;BME280;6971;50.028;9.258;2023-04-19T12:59:23;99752.63;;;16.24;30.93
13800;BME280;6971;50.028;9.258;2023-04-19T13:04:23;99744.91;;;16.33;31.15
13800;BME280;6971;50.028;9.258;2023-04-19T13:09:26;99736.19;;;16.06;31.85
13800;BME280;6971;50.028;9.258;2023-04-19T13:14:27;99737.94;;;15.16;31.60
13800;BME280;6971;50.028;9.258;2023-04-19T13:19:27;99741.44;;;16.19;30.90
13800;BME280;6971;50.028;9.258;2023-04-19T13:24:28;99731.88;;;16.65;30.03
13800;BME280;6971;50.028;9.258;2023-04-19T13:29:28;99727.69;;;16.01;32.26
13800;BME280;6971;50.028;9.258;2023-04-19T13:34:29;99723.91;;;15.53;32.49
13800;BME280;6971;50.028;9.258;2023-04-19T13:39:29;99718.81;;;15.50;31.65
13800;BME280;6971;50.028;9.258;2023-04-19T13:44:29;99728.94;;;15.58;29.75
13800;BME280;6971;50.028;9.258;2023-04-19T13:49:30;99720.31;;;15.41;29.89
13800;BME280;6971;50.028;9.258;2023-04-19T13:54:30;99703.31;;;15.18;30.06
13800;BME280;6971;50.028;9.258;2023-04-19T13:59:31;99709.91;;;15.12;31.37
13800;BME280;6971;50.028;9.258;2023-04-19T14:04:31;99704.38;;;14.89;30.80
13800;BME280;6971;50.028;9.258;2023-04-19T14:09:32;99709.59;;;15.30;31.93
13800;BME280;6971;50.028;9.258;2023-04-19T14:14:32;99707.84;;;15.81;31.44
13800;BME280;6971;50.028;9.258;2023-04-19T14:19:32;99707.59;;;15.07;29.00
13800;BME280;6971;50.028;9.258;2023-04-19T14:24:35;99713.31;;;15.40;30.38
13800;BME280;6971;50.028;9.258;2023-04-19T14:29:36;99708.66;;;15.31;30.25
13800;BME280;6971;50.028;9.258;2023-04-19T14:34:36;99706.28;;;15.00;31.95
13800;BME280;6971;50.028;9.258;2023-04-19T14:39:36;99711.69;;;14.98;32.88
13800;BME280;6971;50.028;9.258;2023-04-19T14:44:36;99698.63;;;14.55;32.51
13800;BME280;6971;50.028;9.258;2023-04-19T14:49:37;99710.34;;;14.65;31.93
13800;BME280;6971;50.028;9.258;2023-04-19T14:54:37;99698.13;;;15.16;33.05
13800;BME280;6971;50.028;9.258;2023-04-19T14:59:37;99699.94;;;14.34;33.06
13800;BME280;6971;50.028;9.258;2023-04-19T15:04:38;99702.47;;;13.37;34.79
13800;BME280;6971;50.028;9.258;2023-04-19T15:09:38;99711.19;;;13.68;35.64
13800;BME280;6971;50.028;9.258;2023-04-19T15:14:39;99709.56;;;13.37;35.83
13800;BME280;6971;50.028;9.258;2023-04-19T15:19:39;99710.53;;;13.65;36.56
13800;BME280;6971;50.028;9.258;2023-04-19T15:24:40;99711.28;;;13.67;36.83
13800;BME280;6971;50.028;9.258;2023-04-19T15:29:40;99711.00;;;13.72;36.01
13800;BME280;6971;50.028;9.258;2023-04-19T15:34:41;99721.91;;;13.22;36.05
13800;BME280;6971;50.028;9.258;2023-04-19T15:39:41;99723.50;;;12.95;37.47
13800;BME280;6971;50.028;9.258;2023-04-19T15:44:42;99716.44;;;13.25;36.83
13800;BME280;6971;50.028;9.258;2023-04-19T15:49:43;99722.47;;;12.98;38.12
13800;BME280;6971;50.028;9.258;2023-04-19T15:54:46;99724.84;;;12.72;38.18
13800;BME280;6971;50.028;9.258;2023-04-19T15:59:46;99731.72;;;12.44;38.94
13800;BME280;6971;50.028;9.258;2023-04-19T16:04:47;99727.47;;;12.09;37.89
13800;BME280;6971;50.028;9.258;2023-04-19T16:09:47;99719.47;;;12.10;39.62
13800;BME280;6971;50.028;9.258;2023-04-19T16:14:47;99717.75;;;12.25;37.49
13800;BME280;6971;50.028;9.258;2023-04-19T16:19:47;99721.63;;;12.66;37.92
13800;BME280;6971;50.028;9.258;2023-04-19T16:24:48;99728.28;;;12.74;38.02
13800;BME280;6971;50.028;9.258;2023-04-19T16:29:49;99731.28;;;12.51;38.35
13800;BME280;6971;50.028;9.258;2023-04-19T16:34:49;99739.38;;;12.00;39.43
13800;BME280;6971;50.028;9.258;2023-04-19T16:39:50;99735.13;;;11.81;39.81
13800;BME280;6971;50.028;9.258;2023-04-19T16:44:50;99727.94;;;11.67;40.44
13800;BME280;6971;50.028;9.258;2023-04-19T16:49:50;99734.81;;;11.54;42.85
13800;BME280;6971;50.028;9.258;2023-04-19T16:54:51;99724.19;;;11.71;40.56
13800;BME280;6971;50.028;9.258;2023-04-19T16:59:52;99725.06;;;12.04;40.14
13800;BME280;6971;50.028;9.258;2023-04-19T17:04:52;99712.38;;;11.95;39.88
13800;BME280;6971;50.028;9.258;2023-04-19T17:09:53;99714.50;;;11.88;39.83
13800;BME280;6971;50.028;9.258;2023-04-19T17:14:54;99712.53;;;11.92;38.56
13800;BME280;6971;50.028;9.258;2023-04-19T17:19:54;99715.50;;;11.35;40.06
13800;BME280;6971;50.028;9.258;2023-04-19T17:24:55;99723.63;;;11.32;39.67
13800;BME280;6971;50.028;9.258;2023-04-19T17:29:56;99713.72;;;11.02;39.19
13800;BME280;6971;50.028;9.258;2023-04-19T17:34:56;99712.00;;;11.19;40.68
13800;BME280;6971;50.028;9.258;2023-04-19T17:39:57;99714.34;;;10.72;41.04
13800;BME280;6971;50.028;9.258;2023-04-19T17:44:57;99716.28;;;10.31;44.12
13800;BME280;6971;50.028;9.258;2023-04-19T17:50:10;99704.88;;;9.94;47.49
13800;BME280;6971;50.028;9.258;2023-04-19T17:55:12;99705.19;;;9.67;48.44
13800;BME280;6971;50.028;9.258;2023-04-19T18:00:13;99702.78;;;9.43;51.28
13800;BME280;6971;50.028;9.258;2023-04-19T18:05:14;99703.59;;;9.04;54.21
13800;BME280;6971;50.028;9.258;2023-04-19T18:10:14;99696.13;;;8.94;53.87
13800;BME280;6971;50.028;9.258;2023-04-19T18:15:15;99703.94;;;8.54;58.66
13800;BME280;6971;50.028;9.258;2023-04-19T18:20:15;99695.97;;;8.33;60.35
13800;BME280;6971;50.028;9.258;2023-04-19T18:25:16;99703.41;;;8.00;63.12
13800;BME280;6971;50.028;9.258;2023-04-19T18:30:16;99697.75;;;7.64;64.09
13800;BME280;6971;50.028;9.258;2023-04-19T18:35:17;99703.50;;;7.26;66.70
13800;BME280;6971;50.028;9.258;2023-04-19T18:40:17;99701.13;;;6.93;68.41
13800;BME280;6971;50.028;9.258;2023-04-19T18:45:18;99703.88;;;6.63;69.66
13800;BME280;6971;50.028;9.258;2023-04-19T18:50:18;99703.75;;;6.40;70.06
13800;BME280;6971;50.028;9.258;2023-04-19T18:55:18;99716.69;;;6.17;71.66
13800;BME280;6971;50.028;9.258;2023-04-19T19:00:19;99721.75;;;5.93;73.70
13800;BME280;6971;50.028;9.258;2023-04-19T19:05:20;99718.78;;;5.75;74.64
13800;BME280;6971;50.028;9.258;2023-04-19T19:10:21;99725.34;;;5.58;75.51
13800;BME280;6971;50.028;9.258;2023-04-19T19:15:21;99725.56;;;5.51;76.23
13800;BME280;6971;50.028;9.258;2023-04-19T19:20:21;99727.56;;;5.41;76.21
13800;BME280;6971;50.028;9.258;2023-04-19T19:25:24;99728.53;;;5.38;76.97
13800;BME280;6971;50.028;9.258;2023-04-19T19:30:25;99731.03;;;5.43;75.50
13800;BME280;6971;50.028;9.258;2023-04-19T19:35:28;99725.19;;;5.33;76.89
13800;BME280;6971;50.028;9.258;2023-04-19T19:40:28;99727.94;;;5.28;79.78
13800;BME280;6971;50.028;9.258;2023-04-19T19:45:29;99730.75;;;5.20;78.60
13800;BME280;6971;50.028;9.258;2023-04-19T19:50:32;99728.22;;;5.17;79.28
13800;BME280;6971;50.028;9.258;2023-04-19T19:55:32;99727.53;;;5.11;80.81
13800;BME280;6971;50.028;9.258;2023-04-19T20:00:33;99726.88;;;5.02;80.52
13800;BME280;6971;50.028;9.258;2023-04-19T20:05:33;99727.13;;;4.93;80.81
13800;BME280;6971;50.028;9.258;2023-04-19T20:10:42;99721.31;;;4.81;82.92
13800;BME280;6971;50.028;9.258;2023-04-19T20:15:43;99731.25;;;4.67;84.03
13800;BME280;6971;50.028;9.258;2023-04-19T20:20:46;99729.56;;;4.64;84.24
13800;BME280;6971;50.028;9.258;2023-04-19T20:25:46;99716.91;;;4.47;87.04
13800;BME280;6971;50.028;9.258;2023-04-19T20:30:46;99725.94;;;4.34;88.05
13800;BME280;6971;50.028;9.258;2023-04-19T20:35:48;99709.69;;;4.22;89.49
13800;BME280;6971;50.028;9.258;2023-04-19T20:40:48;99706.47;;;4.09;89.65
13800;BME280;6971;50.028;9.258;2023-04-19T20:45:48;99696.47;;;3.90;91.07
13800;BME280;6971;50.028;9.258;2023-04-19T20:50:49;99694.03;;;3.83;91.96
13800;BME280;6971;50.028;9.258;2023-04-19T20:55:49;99694.31;;;3.70;93.29
13800;BME280;6971;50.028;9.258;2023-04-19T21:00:50;99683.19;;;3.62;93.36
13800;BME280;6971;50.028;9.258;2023-04-19T21:05:50;99690.00;;;3.69;91.45
13800;BME280;6971;50.028;9.258;2023-04-19T21:10:50;99686.78;;;3.55;94.47
13800;BME280;6971;50.028;9.258;2023-04-19T21:15:53;99683.63;;;3.40;95.43
13800;BME280;6971;50.028;9.258;2023-04-19T21:20:56;99681.91;;;3.39;95.18
13800;BME280;6971;50.028;9.258;2023-04-19T21:25:56;99676.25;;;3.17;97.07
13800;BME280;6971;50.028;9.258;2023-04-19T21:30:57;99680.00;;;3.03;97.28
13800;BME280;6971;50.028;9.258;2023-04-19T21:35:57;99668.03;;;2.93;99.24
13800;BME280;6971;50.028;9.258;2023-04-19T21:40:57;99667.41;;;2.80;100.00
13800;BME280;6971;50.028;9.258;2023-04-19T21:45:58;99666.69;;;2.71;100.00
13800;BME280;6971;50.028;9.258;2023-04-19T21:51:00;99661.75;;;2.56;100.00
13800;BME280;6971;50.028;9.258;2023-04-19T21:56:00;99659.31;;;2.46;100.00
13800;BME280;6971;50.028;9.258;2023-04-19T22:01:02;99662.09;;;2.34;100.00
13800;BME280;6971;50.028;9.258;2023-04-19T22:06:02;99648.28;;;2.30;100.00
13800;BME280;6971;50.028;9.258;2023-04-19T22:11:02;99640.34;;;2.38;100.00
13800;BME280;6971;50.028;9.258;2023-04-19T22:16:03;99636.28;;;2.21;100.00
13800;BME280;6971;50.028;9.258;2023-04-19T22:21:03;99627.03;;;2.05;100.00
13800;BME280;6971;50.028;9.258;2023-04-19T22:26:05;99632.38;;;1.95;100.00
13800;BME280;6971;50.028;9.258;2023-04-19T22:31:05;99622.09;;;1.86;100.00
13800;BME280;6971;50.028;9.258;2023-04-19T22:36:06;99623.22;;;1.69;100.00
13800;BME280;6971;50.028;9.258;2023-04-19T22:41:07;99609.50;;;1.60;100.00
13800;BME280;6971;50.028;9.258;2023-04-19T22:46:07;99606.09;;;1.56;100.00
13800;BME280;6971;50.028;9.258;2023-04-19T22:51:07;99599.16;;;1.55;100.00
13800;BME280;6971;50.028;9.258;2023-04-19T22:56:08;99606.25;;;1.45;100.00
13800;BME280;6971;50.028;9.258;2023-04-19T23:01:08;99595.94;;;1.37;100.00
13800;BME280;6971;50.028;9.258;2023-04-19T23:06:09;99588.03;;;1.47;100.00
13800;BME280;6971;50.028;9.258;2023-04-19T23:11:10;99590.59;;;1.48;100.00
13800;BME280;6971;50.028;9.258;2023-04-19T23:16:10;99586.38;;;1.42;100.00
13800;BME280;6971;50.028;9.258;2023-04-19T23:21:10;99582.09;;;1.37;100.00
13800;BME280;6971;50.028;9.258;2023-04-19T23:26:11;99580.31;;;1.42;100.00
13800;BME280;6971;50.028;9.258;2023-04-19T23:31:11;99570.72;;;1.46;100.00
13800;BME280;6971;50.028;9.258;2023-04-19T23:36:11;99567.31;;;1.40;100.00
13800;BME280;6971;50.028;9.258;2023-04-19T23:41:12;99569.00;;;1.45;100.00
13800;BME280;6971;50.028;9.258;2023-04-19T23:46:12;99564.88;;;1.29;100.00
13800;BME280;6971;50.028;9.258;2023-04-19T23:51:12;99559.66;;;1.33;100.00
13800;BME280;6971;50.028;9.258;2023-04-19T23:56:13;99550.09;;;1.35;100.00
